Flight Track Log - Related Links

Times and Time Zones

All times are in EDT time to prevent confusion due to time zone crossing. See the N2118S flight status page for this flight to view local times or setup timezone preferences in your user account.

Time Position Orientation Groundspeed Altitude Reporting Facility
EDT Latitude Longitude Course Direction KTS MPH feet Rate Location/Type
Fri 03:12:22 PM 31.8739 -106.6825 339° North 96 110 4,400  Level Albuquerque Center
Fri 03:12:58 PM 31.8811 -106.6633 66° East 128 147 4,600 333 Climbing Albuquerque Center
Fri 03:13:34 PM 31.9014 -106.6653 355° North 129 148 4,800 367 Climbing Albuquerque Center
Fri 03:14:36 PM 31.9311 -106.6744 345° North 117 135 5,200 435 Climbing Albuquerque Center
Fri 03:15:00 PM 32.1291 -106.7722 339° North  Level FlightAware Approximate
Fri 03:15:38 PM 31.9681 -106.6872 344° North 115 132 5,700  Level Albuquerque Center
Fri 03:16:00 PM 32.1713 -106.7909 339° North  Level FlightAware Approximate
Fri 03:16:39 PM 31.9992 -106.6981 344° North 115 132 6,100  Level Albuquerque Center
Fri 03:17:00 PM 32.2134 -106.8096 339° North  Level FlightAware Approximate
Fri 03:17:41 PM 32.0297 -106.7061 347° North 114 131 6,400  Level Albuquerque Center
Fri 03:18:43 PM 32.0614 -106.7153 346° North 115 132 7,100 532 Climbing Albuquerque Center
Fri 03:19:45 PM 32.0922 -106.7236 347° North 115 132 7,500 242 Climbing Albuquerque Center
Fri 03:20:47 PM 32.1242 -106.7303 350° North 116 133 7,600 98 Climbing Albuquerque Center
Fri 03:21:48 PM 32.1561 -106.7392 347° North 118 136 7,700 293 Climbing Albuquerque Center
Fri 03:22:50 PM 32.1956 -106.7522 344° North 121 139 8,200 435 Climbing Albuquerque Center
Fri 03:23:52 PM 32.2281 -106.7628 345° North 122 140 8,600 290 Climbing Albuquerque Center
Fri 03:24:54 PM 32.2597 -106.7728 345° North 120 138 8,800 242 Climbing Albuquerque Center
Fri 03:25:56 PM 32.2919 -106.7847 343° North 121 139 9,100 244 Climbing Albuquerque Center
Fri 03:26:57 PM 32.3236 -106.7961 343° North 120 138 9,300 195 Climbing Albuquerque Center
Fri 03:27:59 PM 32.3556 -106.8083 342° North 121 139 9,500 290 Climbing Albuquerque Center
Fri 03:29:01 PM 32.3958 -106.8231 343° North 125 144 9,900 435 Climbing Albuquerque Center
Fri 03:30:03 PM 32.4292 -106.8328 346° North 125 144 10,400 242 Climbing Albuquerque Center
Fri 03:31:05 PM 32.4625 -106.8461 341° North 126 145 10,400  Level Albuquerque Center
Fri 03:32:06 PM 32.4964 -106.8564 346° North 127 146 10,400 195 Level Albuquerque Center
Fri 03:33:08 PM 32.5300 -106.8678 344° North 126 145 10,800 339 Climbing Albuquerque Center
Fri 03:34:10 PM 32.5636 -106.8800 343° North 126 145 11,100 339 Climbing Albuquerque Center
Fri 03:35:12 PM 32.6042 -106.8950 343° North 127 146 11,500 244 Climbing Albuquerque Center
Fri 03:36:13 PM 32.6383 -106.9081 342° North 128 147 11,600 146 Climbing Albuquerque Center
Fri 03:37:15 PM 32.6731 -106.9217 342° North 130 150 11,800 242 Climbing Albuquerque Center
Fri 03:38:17 PM 32.7069 -106.9339 343° North 129 148 12,100 339 Climbing Albuquerque Center
Fri 03:39:19 PM 32.7425 -106.9456 345° North 130 150 12,500 290 Climbing Albuquerque Center
Fri 03:40:21 PM 32.7758 -106.9586 342° North 129 148 12,700 194 Climbing Albuquerque Center
Fri 03:41:23 PM 32.8164 -106.9747 342° North 128 147 12,900 194 Climbing Albuquerque Center
Fri 03:42:25 PM 32.8494 -106.9903 338° Northwest 128 147 13,100 341 Climbing Albuquerque Center
Fri 03:43:26 PM 32.8853 -107.0047 341° North 133 153 13,600 390 Climbing Albuquerque Center
Fri 03:44:28 PM 32.9186 -107.0172 343° North 130 150 13,900 194 Climbing Albuquerque Center
Fri 03:45:30 PM 32.9550 -107.0319 341° North 134 154 14,000 290 Climbing Albuquerque Center
Fri 03:46:32 PM 32.9886 -107.0600 325° Northwest 144 166 14,500 387 Climbing Albuquerque Center
Fri 03:47:34 PM 33.0239 -107.0936 321° Northwest 139 160 14,800 290 Climbing Albuquerque Center
Fri 03:48:36 PM 33.0533 -107.1194 324° Northwest 134 154 15,100 244 Climbing Albuquerque Center
Fri 03:49:37 PM 33.0819 -107.1478 320° Northwest 134 154 15,300 293 Climbing Albuquerque Center
Fri 03:50:39 PM 33.1114 -107.1744 323° Northwest 134 154 15,700 339 Climbing Albuquerque Center
Fri 03:51:41 PM 33.1414 -107.2003 324° Northwest 133 153 16,000 145 Climbing Albuquerque Center
Fri 03:52:43 PM 33.1736 -107.2267 326° Northwest 137 158 16,000  Level Albuquerque Center
Fri 03:53:45 PM 33.2144 -107.2633 323° Northwest 150 173 16,000  Level Albuquerque Center
Fri 03:54:47 PM 33.2500 -107.2956 323° Northwest 158 182 16,000  Level Albuquerque Center
Fri 03:55:49 PM 33.2872 -107.3269 325° Northwest 162 186 16,000  Level Albuquerque Center
Fri 03:56:51 PM 33.3228 -107.3583 324° Northwest 160 184 16,000 48 Level Albuquerque Center
Fri 03:57:53 PM 33.3567 -107.3903 322° Northwest 157 181 16,100 290 Climbing Albuquerque Center
Fri 03:58:55 PM 33.3872 -107.4175 323° Northwest 144 166 16,600 484 Climbing Albuquerque Center
Fri 03:59:57 PM 33.4231 -107.4503 323° Northwest 137 158 17,100 387 Climbing Albuquerque Center
Fri 04:00:59 PM 33.4514 -107.4808 318° Northwest 137 158 17,400 290 Climbing Albuquerque Center
Fri 04:02:01 PM 33.4806 -107.5122 318° Northwest 140 161 17,700 194 Climbing Albuquerque Center
Fri 04:03:03 PM 33.5114 -107.5428 320° Northwest 143 165 17,800 145 Climbing Albuquerque Center
Fri 04:04:05 PM 33.5419 -107.5758 318° Northwest 146 168 18,000 96 Climbing Albuquerque Center
Fri 04:05:08 PM 33.5683 -107.6153 309° West 149 171 18,000  Level Albuquerque Center
Fri 04:06:09 PM 33.5969 -107.6667 304° West 153 176 18,000  Level Albuquerque Center
Fri 04:07:11 PM 33.6175 -107.7136 298° West 157 181 18,000  Level Albuquerque Center
Fri 04:08:13 PM 33.6339 -107.7617 292° West 157 181 18,000  Level Albuquerque Center
Fri 04:09:15 PM 33.6533 -107.8106 296° West 159 183 18,000 -49 Level Albuquerque Center
Fri 04:10:16 PM 33.6794 -107.8531 306° West 161 185 17,900  Descending Albuquerque Center
Fri 04:11:18 PM 33.7017 -107.8983 301° West 158 182 18,000 48 Climbing Albuquerque Center
Fri 04:12:20 PM 33.7272 -107.9525 300° West 156 180 18,000  Level Albuquerque Center
Fri 04:13:22 PM 33.7664 -107.9772 332° Northwest 171 197 18,000 -48 Level Albuquerque Center
Fri 04:14:24 PM 33.8108 -107.9881 349° North 165 190 17,900  Descending Albuquerque Center
Fri 04:15:26 PM 33.8572 -107.9953 353° North 167 192 18,000 48 Climbing Albuquerque Center
Fri 04:16:28 PM 33.9039 -108.0031 352° North 169 194 18,000  Level Albuquerque Center
Fri 04:17:30 PM 33.9508 -108.0122 351° North 170 196 18,000  Level Albuquerque Center
Fri 04:18:31 PM 34.0100 -108.0219 352° North 176 203 18,000  Level Albuquerque Center
Fri 04:19:33 PM 34.0553 -108.0322 349° North 175 201 18,000  Level Albuquerque Center
Fri 04:20:35 PM 34.1061 -108.0419 351° North 179 206 18,000  Level Albuquerque Center
Fri 04:21:37 PM 34.1556 -108.0511 351° North 181 208 18,000  Level Albuquerque Center
Fri 04:22:39 PM 34.2075 -108.0600 352° North 185 213 18,000  Level Albuquerque Center
Fri 04:23:41 PM 34.2575 -108.0694 351° North 183 211 18,000  Level Albuquerque Center
Fri 04:24:43 PM 34.3183 -108.0819 350° North 184 212 18,000 -48 Level Albuquerque Center
Fri 04:25:45 PM 34.3694 -108.0928 350° North 186 214 17,900 49 Descending Albuquerque Center
Fri 04:26:46 PM 34.4192 -108.1033 350° North 182 209 18,100 49 Climbing Albuquerque Center
Fri 04:27:48 PM 34.4581 -108.1300 331° Northwest 175 201 18,000 -290 Descending Albuquerque Center
Fri 04:28:50 PM 34.4919 -108.1786 310° West 185 213 17,500 -532 Descending Albuquerque Center
Fri 04:29:52 PM 34.5342 -108.2186 322° Northwest 193 222 16,900 -629 Descending Albuquerque Center
Fri 04:30:54 PM 34.5939 -108.2511 336° Northwest 196 226 16,200 -581 Descending Albuquerque Center
Fri 04:31:56 PM 34.6475 -108.2553 356° North 197 227 15,700 -488 Descending Albuquerque Center
Fri 04:32:57 PM 34.7078 -108.2692 349° North 196 226 15,200 -537 Descending Albuquerque Center
Fri 04:33:59 PM 34.7600 -108.2792 351° North 197 227 14,600 -532 Descending Albuquerque Center
Fri 04:35:01 PM 34.8117 -108.2833 356° North 194 223 14,100 -242 Descending Albuquerque Center
Fri 04:36:03 PM 34.8678 -108.2928 352° North 187 215 14,100  Level Albuquerque Center
Fri 04:37:04 PM 34.9125 -108.3011 351° North 174 200 14,100 -49 Level Albuquerque Center
Fri 04:38:06 PM 34.9650 -108.3064 355° North 169 194 14,000  Descending Albuquerque Center
Fri 04:39:08 PM 35.0078 -108.3161 349° North 166 191 14,100 48 Climbing Albuquerque Center
Fri 04:40:10 PM 35.0592 -108.3281 349° North 166 191 14,100  Level Albuquerque Center
Fri 04:41:11 PM 35.1025 -108.3411 346° North 167 192 14,100 -49 Level Albuquerque Center
Fri 04:42:13 PM 35.1511 -108.3531 349° North 162 186 14,000  Descending Albuquerque Center
Fri 04:43:15 PM 35.1925 -108.3639 348° North 160 184 14,100 48 Climbing Albuquerque Center
Fri 04:44:17 PM 35.2347 -108.3717 351° North 158 182 14,100  Level Albuquerque Center
Fri 04:45:19 PM 35.2839 -108.3844 348° North 162 186 14,100 -195 Level Albuquerque Center
Fri 04:46:20 PM 35.3297 -108.3953 349° North 167 192 13,700 -341 Descending Albuquerque Center
Fri 04:47:22 PM 35.3861 -108.4083 349° North 179 206 13,400 -339 Descending Albuquerque Center
Fri 04:48:24 PM 35.4344 -108.4194 349° North 183 211 13,000 -194 Descending Albuquerque Center
Fri 04:49:26 PM 35.4903 -108.4325 349° North 183 211 13,000 -242 Level Albuquerque Center
Fri 04:50:28 PM 35.5394 -108.4456 348° North 186 214 12,500 -435 Descending Albuquerque Center
Fri 04:51:30 PM 35.5972 -108.4575 350° North 187 215 12,100 -244 Descending Albuquerque Center
Fri 04:52:31 PM 35.6453 -108.4694 349° North 186 214 12,000 -49 Descending Albuquerque Center
Fri 04:53:33 PM 35.6889 -108.4806 348° North 177 204 12,000  Level Albuquerque Center
Fri 04:54:35 PM 35.7361 -108.4931 348° North 163 188 12,000  Level Albuquerque Center
Fri 04:55:37 PM 35.7781 -108.5047 347° North 160 184 12,000  Level Albuquerque Center
Fri 04:56:38 PM 35.8303 -108.5175 349° North 166 191 12,000  Level Albuquerque Center
Fri 04:57:40 PM 35.8731 -108.5283 348° North 166 191 12,000  Level Albuquerque Center
Fri 04:58:42 PM 35.9214 -108.5411 348° North 162 186 12,000  Level Albuquerque Center
Fri 04:59:44 PM 35.9631 -108.5519 348° North 160 184 12,000  Level Albuquerque Center
Fri 05:00:45 PM 36.0122 -108.5631 350° North 161 185 12,000  Level Albuquerque Center
Fri 05:01:47 PM 36.0564 -108.5714 351° North 164 189 12,000  Level Albuquerque Center
Fri 05:02:49 PM 36.1075 -108.5831 350° North 167 192 12,000  Level Albuquerque Center
Fri 05:03:51 PM 36.1475 -108.5917 350° North 160 184 12,000  Level Albuquerque Center
Fri 05:04:52 PM 36.1942 -108.6039 348° North 155 178 12,000  Level Albuquerque Center
Fri 05:05:54 PM 36.2383 -108.6153 348° North 163 188 12,000 -48 Level Albuquerque Center
Fri 05:06:56 PM 36.2856 -108.6275 348° North 172 198 11,900 -48 Descending Albuquerque Center
Fri 05:07:58 PM 36.3378 -108.6392 350° North 174 200 11,900  Level Albuquerque Center
Fri 05:08:59 PM 36.3800 -108.6519 346° North 168 193 11,900  Level Albuquerque Center
Fri 05:10:27 PM 36.4497 -108.6672 350° North 161 185 11,900  Level Denver Center
Fri 05:11:29 PM 36.4919 -108.6750 352° North 159 183 11,900  Level Denver Center
Fri 05:12:31 PM 36.5350 -108.6833 351° North 161 185 11,900 -97 Level Denver Center
Fri 05:13:33 PM 36.5867 -108.6942 350° North 166 191 11,700 -242 Descending Denver Center
Fri 05:14:35 PM 36.6358 -108.7081 347° North 176 203 11,400 -435 Descending Denver Center
Fri 05:15:37 PM 36.6958 -108.7242 348° North 189 217 10,800 -576 Descending Denver Center
Fri 05:16:40 PM 36.7444 -108.7336 351° North 189 217 10,200 -528 Descending Denver Center
Fri 05:17:42 PM 36.7967 -108.7442 351° North 178 205 9,700 -145 Descending Denver Center
Fri 05:18:44 PM 36.8375 -108.7494 354° North 166 191 9,900 -48 Climbing Denver Center
Fri 05:19:46 PM 36.8864 -108.7586 351° North 159 183 9,600 -339 Descending Denver Center
Fri 05:20:48 PM 36.9328 -108.7694 349° North 169 194 9,200 -387 Descending Denver Center

Login

Don't have an account? Register now (free) for customized features, flight alerts, and more!